sensor_id;sensor_type;location;lat;lon;timestamp;temperature;humidity
36816;DHT22;71982;52.294;6.760;2023-11-21T00:00:13;8.10;99.90
36816;DHT22;71982;52.294;6.760;2023-11-21T00:02:40;8.10;99.90
36816;DHT22;71982;52.294;6.760;2023-11-21T00:05:09;8.10;99.90
36816;DHT22;71982;52.294;6.760;2023-11-21T00:07:36;8.10;99.90
36816;DHT22;71982;52.294;6.760;2023-11-21T00:10:03;8.00;99.90
36816;DHT22;71982;52.294;6.760;2023-11-21T00:12:31;8.00;99.90
36816;DHT22;71982;52.294;6.760;2023-11-21T00:14:59;8.00;99.90
36816;DHT22;71982;52.294;6.760;2023-11-21T00:17:25;8.00;99.90
36816;DHT22;71982;52.294;6.760;2023-11-21T00:19:52;8.00;99.90
36816;DHT22;71982;52.294;6.760;2023-11-21T00:22:20;8.00;99.90
36816;DHT22;71982;52.294;6.760;2023-11-21T00:24:47;8.00;99.90
36816;DHT22;71982;52.294;6.760;2023-11-21T00:27:14;8.00;99.90
36816;DHT22;71982;52.294;6.760;2023-11-21T00:29:41;8.00;99.90
36816;DHT22;71982;52.294;6.760;2023-11-21T00:32:07;8.10;99.90
36816;DHT22;71982;52.294;6.760;2023-11-21T00:34:34;8.00;99.90
36816;DHT22;71982;52.294;6.760;2023-11-21T00:37:01;8.00;99.90
36816;DHT22;71982;52.294;6.760;2023-11-21T00:39:29;8.00;99.90
36816;DHT22;71982;52.294;6.760;2023-11-21T00:41:58;8.00;99.90
36816;DHT22;71982;52.294;6.760;2023-11-21T00:44:25;7.90;99.90
36816;DHT22;71982;52.294;6.760;2023-11-21T00:46:52;7.90;99.90
36816;DHT22;71982;52.294;6.760;2023-11-21T00:49:18;7.80;99.90
36816;DHT22;71982;52.294;6.760;2023-11-21T00:51:46;7.80;99.90
36816;DHT22;71982;52.294;6.760;2023-11-21T00:54:13;7.80;99.90
36816;DHT22;71982;52.294;6.760;2023-11-21T00:56:44;7.80;99.90
36816;DHT22;71982;52.294;6.760;2023-11-21T00:59:12;7.80;99.90
36816;DHT22;71982;52.294;6.760;2023-11-21T01:01:39;7.80;99.90
36816;DHT22;71982;52.294;6.760;2023-11-21T01:04:06;7.70;99.90
36816;DHT22;71982;52.294;6.760;2023-11-21T01:06:33;7.70;99.90
36816;DHT22;71982;52.294;6.760;2023-11-21T01:09:00;7.80;99.90
36816;DHT22;71982;52.294;6.760;2023-11-21T01:11:26;7.80;99.90
36816;DHT22;71982;52.294;6.760;2023-11-21T01:13:54;7.80;99.90
36816;DHT22;71982;52.294;6.760;2023-11-21T01:16:21;7.80;99.90
36816;DHT22;71982;52.294;6.760;2023-11-21T01:18:49;7.80;99.90
36816;DHT22;71982;52.294;6.760;2023-11-21T01:21:16;7.90;99.90
36816;DHT22;71982;52.294;6.760;2023-11-21T01:23:43;7.90;99.90
36816;DHT22;71982;52.294;6.760;2023-11-21T01:26:09;7.90;99.90
36816;DHT22;71982;52.294;6.760;2023-11-21T01:28:36;7.90;99.90
36816;DHT22;71982;52.294;6.760;2023-11-21T01:31:04;7.90;99.90
36816;DHT22;71982;52.294;6.760;2023-11-21T01:33:32;7.90;99.90
36816;DHT22;71982;52.294;6.760;2023-11-21T01:35:59;7.90;99.90
36816;DHT22;71982;52.294;6.760;2023-11-21T01:38:26;8.00;99.90
36816;DHT22;71982;52.294;6.760;2023-11-21T01:40:52;8.00;99.90
36816;DHT22;71982;52.294;6.760;2023-11-21T01:43:20;8.00;99.90
36816;DHT22;71982;52.294;6.760;2023-11-21T01:45:47;8.00;99.90
36816;DHT22;71982;52.294;6.760;2023-11-21T01:48:15;8.00;99.90
36816;DHT22;71982;52.294;6.760;2023-11-21T01:50:42;8.10;99.90
36816;DHT22;71982;52.294;6.760;2023-11-21T01:53:11;8.00;99.90
36816;DHT22;71982;52.294;6.760;2023-11-21T01:55:40;8.00;99.90
36816;DHT22;71982;52.294;6.760;2023-11-21T01:58:08;8.00;99.90
36816;DHT22;71982;52.294;6.760;2023-11-21T02:00:35;8.10;99.90
36816;DHT22;71982;52.294;6.760;2023-11-21T02:03:03;8.10;99.90
36816;DHT22;71982;52.294;6.760;2023-11-21T02:05:33;8.10;99.90
36816;DHT22;71982;52.294;6.760;2023-11-21T02:08:00;8.10;99.90
36816;DHT22;71982;52.294;6.760;2023-11-21T02:10:28;8.10;99.90
36816;DHT22;71982;52.294;6.760;2023-11-21T02:12:56;8.10;99.90
36816;DHT22;71982;52.294;6.760;2023-11-21T02:15:24;8.10;99.90
36816;DHT22;71982;52.294;6.760;2023-11-21T02:17:54;8.10;99.90
36816;DHT22;71982;52.294;6.760;2023-11-21T02:20:21;8.10;99.90
36816;DHT22;71982;52.294;6.760;2023-11-21T02:22:52;8.10;99.90
36816;DHT22;71982;52.294;6.760;2023-11-21T02:25:23;8.10;99.90
36816;DHT22;71982;52.294;6.760;2023-11-21T02:27:50;8.00;99.90
36816;DHT22;71982;52.294;6.760;2023-11-21T02:30:16;8.00;99.90
36816;DHT22;71982;52.294;6.760;2023-11-21T02:32:44;7.90;99.90
36816;DHT22;71982;52.294;6.760;2023-11-21T02:35:11;7.90;99.90
36816;DHT22;71982;52.294;6.760;2023-11-21T02:37:38;7.90;99.90
36816;DHT22;71982;52.294;6.760;2023-11-21T02:40:09;7.80;99.90
36816;DHT22;71982;52.294;6.760;2023-11-21T02:42:38;7.80;99.90
36816;DHT22;71982;52.294;6.760;2023-11-21T02:45:05;7.80;99.90
36816;DHT22;71982;52.294;6.760;2023-11-21T02:47:32;7.70;99.90
36816;DHT22;71982;52.294;6.760;2023-11-21T02:49:59;7.80;99.90
36816;DHT22;71982;52.294;6.760;2023-11-21T02:52:26;7.90;99.90
36816;DHT22;71982;52.294;6.760;2023-11-21T02:54:53;7.80;99.90
36816;DHT22;71982;52.294;6.760;2023-11-21T02:57:21;7.90;99.90
36816;DHT22;71982;52.294;6.760;2023-11-21T02:59:48;7.90;99.90
36816;DHT22;71982;52.294;6.760;2023-11-21T03:02:15;8.00;99.90
36816;DHT22;71982;52.294;6.760;2023-11-21T03:04:42;8.00;99.90
36816;DHT22;71982;52.294;6.760;2023-11-21T03:07:09;8.00;99.90
36816;DHT22;71982;52.294;6.760;2023-11-21T03:09:36;8.10;99.90
36816;DHT22;71982;52.294;6.760;2023-11-21T03:12:03;8.00;99.90
36816;DHT22;71982;52.294;6.760;2023-11-21T03:14:32;8.10;99.90
36816;DHT22;71982;52.294;6.760;2023-11-21T03:16:58;8.00;99.90
36816;DHT22;71982;52.294;6.760;2023-11-21T03:19:25;8.10;99.90
36816;DHT22;71982;52.294;6.760;2023-11-21T03:21:52;8.10;99.90
36816;DHT22;71982;52.294;6.760;2023-11-21T03:24:19;8.10;99.90
36816;DHT22;71982;52.294;6.760;2023-11-21T03:26:48;8.10;99.90
36816;DHT22;71982;52.294;6.760;2023-11-21T03:29:15;8.00;99.90
36816;DHT22;71982;52.294;6.760;2023-11-21T03:31:43;8.10;99.90
36816;DHT22;71982;52.294;6.760;2023-11-21T03:34:15;8.00;99.90
36816;DHT22;71982;52.294;6.760;2023-11-21T03:36:43;8.10;99.90
36816;DHT22;71982;52.294;6.760;2023-11-21T03:39:09;8.00;99.90
36816;DHT22;71982;52.294;6.760;2023-11-21T03:41:36;8.00;99.90
36816;DHT22;71982;52.294;6.760;2023-11-21T03:44:03;8.00;99.90
36816;DHT22;71982;52.294;6.760;2023-11-21T03:46:30;8.00;99.90
36816;DHT22;71982;52.294;6.760;2023-11-21T03:48:58;8.00;99.90
36816;DHT22;71982;52.294;6.760;2023-11-21T03:51:25;8.00;99.90
36816;DHT22;71982;52.294;6.760;2023-11-21T03:53:52;8.00;99.90
36816;DHT22;71982;52.294;6.760;2023-11-21T03:56:19;8.00;99.90
36816;DHT22;71982;52.294;6.760;2023-11-21T03:58:47;8.00;99.90
36816;DHT22;71982;52.294;6.760;2023-11-21T04:01:19;8.00;99.90
36816;DHT22;71982;52.294;6.760;2023-11-21T04:03:47;7.90;99.90
36816;DHT22;71982;52.294;6.760;2023-11-21T04:06:15;7.90;99.90
36816;DHT22;71982;52.294;6.760;2023-11-21T04:08:42;7.90;99.90
36816;DHT22;71982;52.294;6.760;2023-11-21T04:11:09;7.90;99.90
36816;DHT22;71982;52.294;6.760;2023-11-21T04:13:37;7.90;99.90
36816;DHT22;71982;52.294;6.760;2023-11-21T04:16:05;8.00;99.90
36816;DHT22;71982;52.294;6.760;2023-11-21T04:18:32;8.00;99.90
36816;DHT22;71982;52.294;6.760;2023-11-21T04:20:59;8.00;99.90
36816;DHT22;71982;52.294;6.760;2023-11-21T04:23:28;8.00;99.90
36816;DHT22;71982;52.294;6.760;2023-11-21T04:25:56;8.00;99.90
36816;DHT22;71982;52.294;6.760;2023-11-21T04:28:23;8.00;99.90
36816;DHT22;71982;52.294;6.760;2023-11-21T04:30:50;8.00;99.90
36816;DHT22;71982;52.294;6.760;2023-11-21T04:33:16;7.90;99.90
36816;DHT22;71982;52.294;6.760;2023-11-21T04:35:43;7.90;99.90
36816;DHT22;71982;52.294;6.760;2023-11-21T04:38:10;8.00;99.90
36816;DHT22;71982;52.294;6.760;2023-11-21T04:40:38;8.00;99.90
36816;DHT22;71982;52.294;6.760;2023-11-21T04:43:04;8.00;99.90
36816;DHT22;71982;52.294;6.760;2023-11-21T04:45:31;7.90;99.90
36816;DHT22;71982;52.294;6.760;2023-11-21T04:47:58;7.90;99.90
36816;DHT22;71982;52.294;6.760;2023-11-21T04:50:25;8.00;99.90
36816;DHT22;71982;52.294;6.760;2023-11-21T04:52:53;8.00;99.90
36816;DHT22;71982;52.294;6.760;2023-11-21T04:55:20;8.00;99.90
36816;DHT22;71982;52.294;6.760;2023-11-21T04:57:48;8.00;99.90
36816;DHT22;71982;52.294;6.760;2023-11-21T05:00:15;7.90;99.90
36816;DHT22;71982;52.294;6.760;2023-11-21T05:02:42;8.00;99.90
36816;DHT22;71982;52.294;6.760;2023-11-21T05:05:09;8.00;99.90
36816;DHT22;71982;52.294;6.760;2023-11-21T05:07:37;7.90;99.90
36816;DHT22;71982;52.294;6.760;2023-11-21T05:10:05;7.90;99.90
36816;DHT22;71982;52.294;6.760;2023-11-21T05:12:36;8.00;99.90
36816;DHT22;71982;52.294;6.760;2023-11-21T05:15:06;8.00;99.90
36816;DHT22;71982;52.294;6.760;2023-11-21T05:17:36;8.00;99.90
36816;DHT22;71982;52.294;6.760;2023-11-21T05:20:05;8.00;99.90
36816;DHT22;71982;52.294;6.760;2023-11-21T05:22:34;8.00;99.90
36816;DHT22;71982;52.294;6.760;2023-11-21T05:25:01;8.00;99.90
36816;DHT22;71982;52.294;6.760;2023-11-21T05:27:28;8.00;99.90
36816;DHT22;71982;52.294;6.760;2023-11-21T05:29:55;8.00;99.90
36816;DHT22;71982;52.294;6.760;2023-11-21T05:32:23;8.00;99.90
36816;DHT22;71982;52.294;6.760;2023-11-21T05:34:50;8.00;99.90
36816;DHT22;71982;52.294;6.760;2023-11-21T05:37:17;8.00;99.90
36816;DHT22;71982;52.294;6.760;2023-11-21T05:39:44;8.00;99.90
36816;DHT22;71982;52.294;6.760;2023-11-21T05:42:11;8.00;99.90
36816;DHT22;71982;52.294;6.760;2023-11-21T05:44:41;8.00;99.90
36816;DHT22;71982;52.294;6.760;2023-11-21T05:47:08;8.00;99.90
36816;DHT22;71982;52.294;6.760;2023-11-21T05:49:36;8.00;99.90
36816;DHT22;71982;52.294;6.760;2023-11-21T05:52:04;8.10;99.90
36816;DHT22;71982;52.294;6.760;2023-11-21T05:54:31;8.10;99.90
36816;DHT22;71982;52.294;6.760;2023-11-21T05:56:59;8.10;99.90
36816;DHT22;71982;52.294;6.760;2023-11-21T05:59:26;8.10;99.90
36816;DHT22;71982;52.294;6.760;2023-11-21T06:01:52;8.10;99.90
36816;DHT22;71982;52.294;6.760;2023-11-21T06:04:19;8.10;99.90
36816;DHT22;71982;52.294;6.760;2023-11-21T06:06:51;8.10;99.90
36816;DHT22;71982;52.294;6.760;2023-11-21T06:09:17;8.10;99.90
36816;DHT22;71982;52.294;6.760;2023-11-21T06:11:44;8.20;99.90
36816;DHT22;71982;52.294;6.760;2023-11-21T06:14:11;8.10;99.90
36816;DHT22;71982;52.294;6.760;2023-11-21T06:16:38;8.10;99.90
36816;DHT22;71982;52.294;6.760;2023-11-21T06:19:05;8.10;99.90
36816;DHT22;71982;52.294;6.760;2023-11-21T06:21:32;8.00;99.90
36816;DHT22;71982;52.294;6.760;2023-11-21T06:24:00;8.00;99.90
36816;DHT22;71982;52.294;6.760;2023-11-21T06:26:27;8.00;99.90
36816;DHT22;71982;52.294;6.760;2023-11-21T06:28:54;8.10;99.90
36816;DHT22;71982;52.294;6.760;2023-11-21T06:31:22;8.10;99.90
36816;DHT22;71982;52.294;6.760;2023-11-21T06:33:49;8.10;99.90
36816;DHT22;71982;52.294;6.760;2023-11-21T06:36:17;8.10;99.90
36816;DHT22;71982;52.294;6.760;2023-11-21T06:38:44;8.10;99.90
36816;DHT22;71982;52.294;6.760;2023-11-21T06:41:12;8.10;99.90
36816;DHT22;71982;52.294;6.760;2023-11-21T06:43:41;8.10;99.90
36816;DHT22;71982;52.294;6.760;2023-11-21T06:46:10;8.20;99.90
36816;DHT22;71982;52.294;6.760;2023-11-21T06:48:41;8.20;99.90
36816;DHT22;71982;52.294;6.760;2023-11-21T06:51:08;8.20;99.90
36816;DHT22;71982;52.294;6.760;2023-11-21T06:53:36;8.20;99.90
36816;DHT22;71982;52.294;6.760;2023-11-21T06:56:03;8.20;99.90
36816;DHT22;71982;52.294;6.760;2023-11-21T06:58:33;8.20;99.90
36816;DHT22;71982;52.294;6.760;2023-11-21T07:01:00;8.20;99.90
36816;DHT22;71982;52.294;6.760;2023-11-21T07:03:27;8.20;99.90
36816;DHT22;71982;52.294;6.760;2023-11-21T07:05:54;8.20;99.90
36816;DHT22;71982;52.294;6.760;2023-11-21T07:08:20;8.20;99.90
36816;DHT22;71982;52.294;6.760;2023-11-21T07:10:48;8.20;99.90
36816;DHT22;71982;52.294;6.760;2023-11-21T07:13:14;8.30;99.90
36816;DHT22;71982;52.294;6.760;2023-11-21T07:15:42;8.30;99.90
36816;DHT22;71982;52.294;6.760;2023-11-21T07:18:10;8.30;99.90
36816;DHT22;71982;52.294;6.760;2023-11-21T07:20:37;8.30;99.90
36816;DHT22;71982;52.294;6.760;2023-11-21T07:23:03;8.30;99.90
36816;DHT22;71982;52.294;6.760;2023-11-21T07:25:31;8.30;99.90
36816;DHT22;71982;52.294;6.760;2023-11-21T07:27:59;8.30;99.90
36816;DHT22;71982;52.294;6.760;2023-11-21T07:30:26;8.40;99.90
36816;DHT22;71982;52.294;6.760;2023-11-21T07:32:54;8.40;99.90
36816;DHT22;71982;52.294;6.760;2023-11-21T07:35:21;8.40;99.90
36816;DHT22;71982;52.294;6.760;2023-11-21T07:37:47;8.50;99.90
36816;DHT22;71982;52.294;6.760;2023-11-21T07:40:15;8.50;99.90
36816;DHT22;71982;52.294;6.760;2023-11-21T07:42:42;8.60;99.90
36816;DHT22;71982;52.294;6.760;2023-11-21T07:45:09;8.60;99.90
36816;DHT22;71982;52.294;6.760;2023-11-21T07:47:37;8.60;99.90
36816;DHT22;71982;52.294;6.760;2023-11-21T07:50:07;8.60;99.90
36816;DHT22;71982;52.294;6.760;2023-11-21T07:52:34;8.70;99.90
36816;DHT22;71982;52.294;6.760;2023-11-21T07:55:01;8.60;99.90
36816;DHT22;71982;52.294;6.760;2023-11-21T07:57:28;8.70;99.90
36816;DHT22;71982;52.294;6.760;2023-11-21T07:59:54;8.70;99.90
36816;DHT22;71982;52.294;6.760;2023-11-21T08:02:21;8.70;99.90
36816;DHT22;71982;52.294;6.760;2023-11-21T08:04:48;8.70;99.90
36816;DHT22;71982;52.294;6.760;2023-11-21T08:07:17;8.70;99.90
36816;DHT22;71982;52.294;6.760;2023-11-21T08:09:44;8.80;99.90
36816;DHT22;71982;52.294;6.760;2023-11-21T08:12:12;8.70;99.90
36816;DHT22;71982;52.294;6.760;2023-11-21T08:14:40;8.80;99.90
36816;DHT22;71982;52.294;6.760;2023-11-21T08:17:07;8.80;99.90
36816;DHT22;71982;52.294;6.760;2023-11-21T08:19:35;8.80;99.90
36816;DHT22;71982;52.294;6.760;2023-11-21T08:22:03;8.90;99.90
36816;DHT22;71982;52.294;6.760;2023-11-21T08:24:31;8.90;99.90
36816;DHT22;71982;52.294;6.760;2023-11-21T08:26:58;8.90;99.90
36816;DHT22;71982;52.294;6.760;2023-11-21T08:29:24;8.80;99.90
36816;DHT22;71982;52.294;6.760;2023-11-21T08:31:52;8.80;99.90
36816;DHT22;71982;52.294;6.760;2023-11-21T08:34:19;8.80;99.90
36816;DHT22;71982;52.294;6.760;2023-11-21T08:36:45;8.80;99.90
36816;DHT22;71982;52.294;6.760;2023-11-21T08:39:12;8.80;99.90
36816;DHT22;71982;52.294;6.760;2023-11-21T08:41:43;8.80;99.90
36816;DHT22;71982;52.294;6.760;2023-11-21T08:44:10;8.80;99.90
36816;DHT22;71982;52.294;6.760;2023-11-21T08:46:36;8.80;99.90
36816;DHT22;71982;52.294;6.760;2023-11-21T08:49:04;8.90;99.90
36816;DHT22;71982;52.294;6.760;2023-11-21T08:51:31;8.80;99.90
36816;DHT22;71982;52.294;6.760;2023-11-21T08:53:58;8.90;99.90
36816;DHT22;71982;52.294;6.760;2023-11-21T08:56:26;8.90;99.90
36816;DHT22;71982;52.294;6.760;2023-11-21T08:58:54;8.90;99.90
36816;DHT22;71982;52.294;6.760;2023-11-21T09:01:22;8.80;99.90
36816;DHT22;71982;52.294;6.760;2023-11-21T09:03:50;8.90;99.90
36816;DHT22;71982;52.294;6.760;2023-11-21T09:06:17;8.90;99.90
36816;DHT22;71982;52.294;6.760;2023-11-21T09:08:44;9.00;99.90
36816;DHT22;71982;52.294;6.760;2023-11-21T09:11:11;9.00;99.90
36816;DHT22;71982;52.294;6.760;2023-11-21T09:13:39;9.00;99.90
36816;DHT22;71982;52.294;6.760;2023-11-21T09:16:07;9.00;99.90
36816;DHT22;71982;52.294;6.760;2023-11-21T09:18:34;9.00;99.90
36816;DHT22;71982;52.294;6.760;2023-11-21T09:21:01;9.00;99.90
36816;DHT22;71982;52.294;6.760;2023-11-21T09:23:27;9.20;99.90
36816;DHT22;71982;52.294;6.760;2023-11-21T09:25:54;9.20;99.90
36816;DHT22;71982;52.294;6.760;2023-11-21T09:28:22;9.20;99.90
36816;DHT22;71982;52.294;6.760;2023-11-21T09:30:49;9.30;99.90
36816;DHT22;71982;52.294;6.760;2023-11-21T09:33:17;9.20;99.90
36816;DHT22;71982;52.294;6.760;2023-11-21T09:35:44;9.20;99.90
36816;DHT22;71982;52.294;6.760;2023-11-21T09:38:11;9.30;99.90
36816;DHT22;71982;52.294;6.760;2023-11-21T09:40:38;9.30;99.90
36816;DHT22;71982;52.294;6.760;2023-11-21T09:43:07;9.30;99.90
36816;DHT22;71982;52.294;6.760;2023-11-21T09:45:36;9.40;99.90
36816;DHT22;71982;52.294;6.760;2023-11-21T09:48:05;9.50;99.90
36816;DHT22;71982;52.294;6.760;2023-11-21T09:50:35;9.60;99.90
36816;DHT22;71982;52.294;6.760;2023-11-21T09:53:09;9.60;99.90
36816;DHT22;71982;52.294;6.760;2023-11-21T09:55:42;9.60;99.90
36816;DHT22;71982;52.294;6.760;2023-11-21T09:58:10;9.60;99.90
36816;DHT22;71982;52.294;6.760;2023-11-21T10:00:40;9.50;99.90
36816;DHT22;71982;52.294;6.760;2023-11-21T10:03:07;9.50;99.90
36816;DHT22;71982;52.294;6.760;2023-11-21T10:05:36;9.60;99.90
36816;DHT22;71982;52.294;6.760;2023-11-21T10:08:06;9.60;99.90
36816;DHT22;71982;52.294;6.760;2023-11-21T10:10:35;9.70;99.90
36816;DHT22;71982;52.294;6.760;2023-11-21T10:13:03;9.80;99.90
36816;DHT22;71982;52.294;6.760;2023-11-21T10:15:33;9.80;99.90
36816;DHT22;71982;52.294;6.760;2023-11-21T10:18:02;9.80;99.90
36816;DHT22;71982;52.294;6.760;2023-11-21T10:20:30;9.80;99.90
36816;DHT22;71982;52.294;6.760;2023-11-21T10:23:00;9.80;99.90
36816;DHT22;71982;52.294;6.760;2023-11-21T10:25:29;9.90;99.90
36816;DHT22;71982;52.294;6.760;2023-11-21T10:27:58;9.90;99.90
36816;DHT22;71982;52.294;6.760;2023-11-21T10:30:30;10.00;99.90
36816;DHT22;71982;52.294;6.760;2023-11-21T10:32:59;10.00;99.90
36816;DHT22;71982;52.294;6.760;2023-11-21T10:35:38;10.00;99.90
36816;DHT22;71982;52.294;6.760;2023-11-21T10:38:07;10.10;99.90
36816;DHT22;71982;52.294;6.760;2023-11-21T10:40:37;10.10;99.90
36816;DHT22;71982;52.294;6.760;2023-11-21T10:43:06;10.10;99.90
36816;DHT22;71982;52.294;6.760;2023-11-21T10:45:34;10.00;99.90
36816;DHT22;71982;52.294;6.760;2023-11-21T10:48:05;9.90;99.90
36816;DHT22;71982;52.294;6.760;2023-11-21T10:50:33;9.90;99.90
36816;DHT22;71982;52.294;6.760;2023-11-21T10:53:02;9.90;99.90
36816;DHT22;71982;52.294;6.760;2023-11-21T10:55:31;9.90;99.90
36816;DHT22;71982;52.294;6.760;2023-11-21T10:57:59;9.90;99.90
36816;DHT22;71982;52.294;6.760;2023-11-21T11:00:28;9.80;99.90
36816;DHT22;71982;52.294;6.760;2023-11-21T11:02:55;9.80;99.90
36816;DHT22;71982;52.294;6.760;2023-11-21T11:05:25;9.80;99.90
36816;DHT22;71982;52.294;6.760;2023-11-21T11:07:58;9.80;99.90
36816;DHT22;71982;52.294;6.760;2023-11-21T11:10:26;9.80;99.90
36816;DHT22;71982;52.294;6.760;2023-11-21T11:12:56;9.80;99.90
36816;DHT22;71982;52.294;6.760;2023-11-21T11:15:24;9.80;99.90
36816;DHT22;71982;52.294;6.760;2023-11-21T11:17:51;9.80;99.90
36816;DHT22;71982;52.294;6.760;2023-11-21T11:20:23;9.80;99.90
36816;DHT22;71982;52.294;6.760;2023-11-21T11:22:57;9.80;99.90
36816;DHT22;71982;52.294;6.760;2023-11-21T11:25:34;9.80;99.90
36816;DHT22;71982;52.294;6.760;2023-11-21T11:28:08;9.80;99.90
36816;DHT22;71982;52.294;6.760;2023-11-21T11:30:44;9.90;99.90
36816;DHT22;71982;52.294;6.760;2023-11-21T11:33:21;9.80;99.90
36816;DHT22;71982;52.294;6.760;2023-11-21T11:35:57;9.80;99.90
36816;DHT22;71982;52.294;6.760;2023-11-21T11:38:27;9.90;99.90
36816;DHT22;71982;52.294;6.760;2023-11-21T11:40:57;9.90;99.90
36816;DHT22;71982;52.294;6.760;2023-11-21T11:43:29;9.90;99.90
36816;DHT22;71982;52.294;6.760;2023-11-21T11:45:58;9.90;99.90
36816;DHT22;71982;52.294;6.760;2023-11-21T11:48:25;9.80;99.90
36816;DHT22;71982;52.294;6.760;2023-11-21T11:51:03;9.80;99.90
36816;DHT22;71982;52.294;6.760;2023-11-21T11:53:35;9.60;99.90
36816;DHT22;71982;52.294;6.760;2023-11-21T11:56:22;9.60;99.90
36816;DHT22;71982;52.294;6.760;2023-11-21T11:58:53;9.60;99.90
36816;DHT22;71982;52.294;6.760;2023-11-21T12:01:21;9.60;99.90
36816;DHT22;71982;52.294;6.760;2023-11-21T12:07:01;9.50;99.90
36816;DHT22;71982;52.294;6.760;2023-11-21T12:09:30;9.40;99.90
36816;DHT22;71982;52.294;6.760;2023-11-21T12:11:58;9.40;99.90
36816;DHT22;71982;52.294;6.760;2023-11-21T12:14:26;9.50;99.90
36816;DHT22;71982;52.294;6.760;2023-11-21T12:16:54;9.50;99.90
36816;DHT22;71982;52.294;6.760;2023-11-21T12:19:21;9.40;99.90
36816;DHT22;71982;52.294;6.760;2023-11-21T12:21:49;9.40;99.90
36816;DHT22;71982;52.294;6.760;2023-11-21T12:24:16;9.30;99.90
36816;DHT22;71982;52.294;6.760;2023-11-21T12:26:43;9.30;99.90
36816;DHT22;71982;52.294;6.760;2023-11-21T12:29:10;9.30;99.90
36816;DHT22;71982;52.294;6.760;2023-11-21T12:31:38;9.30;99.90
36816;DHT22;71982;52.294;6.760;2023-11-21T12:34:06;9.30;99.90
36816;DHT22;71982;52.294;6.760;2023-11-21T12:36:34;9.40;99.90
36816;DHT22;71982;52.294;6.760;2023-11-21T12:39:01;9.40;99.90
36816;DHT22;71982;52.294;6.760;2023-11-21T12:41:29;9.40;99.90
36816;DHT22;71982;52.294;6.760;2023-11-21T12:43:56;9.40;99.90
36816;DHT22;71982;52.294;6.760;2023-11-21T12:46:24;9.30;99.90
36816;DHT22;71982;52.294;6.760;2023-11-21T12:48:56;9.30;99.90
36816;DHT22;71982;52.294;6.760;2023-11-21T12:51:23;9.30;99.90
36816;DHT22;71982;52.294;6.760;2023-11-21T12:53:51;9.30;99.90
36816;DHT22;71982;52.294;6.760;2023-11-21T12:56:21;9.20;99.90
36816;DHT22;71982;52.294;6.760;2023-11-21T12:58:49;9.20;99.90
36816;DHT22;71982;52.294;6.760;2023-11-21T13:01:18;9.20;99.90
36816;DHT22;71982;52.294;6.760;2023-11-21T13:03:47;9.20;99.90
36816;DHT22;71982;52.294;6.760;2023-11-21T13:06:18;9.10;99.90
36816;DHT22;71982;52.294;6.760;2023-11-21T13:08:50;9.10;99.90
36816;DHT22;71982;52.294;6.760;2023-11-21T13:11:17;9.00;99.90
36816;DHT22;71982;52.294;6.760;2023-11-21T13:13:44;9.00;99.90
36816;DHT22;71982;52.294;6.760;2023-11-21T13:16:11;9.00;99.90
36816;DHT22;71982;52.294;6.760;2023-11-21T13:18:38;8.90;99.90
36816;DHT22;71982;52.294;6.760;2023-11-21T13:21:08;8.90;99.90
36816;DHT22;71982;52.294;6.760;2023-11-21T13:23:41;8.90;99.90
36816;DHT22;71982;52.294;6.760;2023-11-21T13:26:09;8.90;99.90
36816;DHT22;71982;52.294;6.760;2023-11-21T13:28:37;8.90;99.90
36816;DHT22;71982;52.294;6.760;2023-11-21T13:31:05;9.00;99.90
36816;DHT22;71982;52.294;6.760;2023-11-21T13:33:47;9.10;99.90
36816;DHT22;71982;52.294;6.760;2023-11-21T13:36:20;9.30;99.90
36816;DHT22;71982;52.294;6.760;2023-11-21T13:38:50;9.40;99.90
36816;DHT22;71982;52.294;6.760;2023-11-21T13:41:18;9.50;99.90
36816;DHT22;71982;52.294;6.760;2023-11-21T13:43:45;9.50;99.90
36816;DHT22;71982;52.294;6.760;2023-11-21T13:46:19;9.50;99.90
36816;DHT22;71982;52.294;6.760;2023-11-21T13:48:48;9.70;99.90
36816;DHT22;71982;52.294;6.760;2023-11-21T13:51:21;9.60;99.90
36816;DHT22;71982;52.294;6.760;2023-11-21T13:53:57;9.60;99.90
36816;DHT22;71982;52.294;6.760;2023-11-21T13:56:24;9.60;99.90
36816;DHT22;71982;52.294;6.760;2023-11-21T13:58:53;9.40;99.90
36816;DHT22;71982;52.294;6.760;2023-11-21T14:01:22;9.30;99.90
36816;DHT22;71982;52.294;6.760;2023-11-21T14:04:10;9.20;99.90
36816;DHT22;71982;52.294;6.760;2023-11-21T14:06:46;9.10;99.90
36816;DHT22;71982;52.294;6.760;2023-11-21T14:09:16;9.00;99.90
36816;DHT22;71982;52.294;6.760;2023-11-21T14:11:49;8.90;99.90
36816;DHT22;71982;52.294;6.760;2023-11-21T14:14:17;8.90;99.90
36816;DHT22;71982;52.294;6.760;2023-11-21T14:16:44;9.00;99.90
36816;DHT22;71982;52.294;6.760;2023-11-21T14:19:11;8.90;99.90
36816;DHT22;71982;52.294;6.760;2023-11-21T14:21:41;8.90;99.90
36816;DHT22;71982;52.294;6.760;2023-11-21T14:24:09;8.90;99.90
36816;DHT22;71982;52.294;6.760;2023-11-21T14:26:40;8.80;99.90
36816;DHT22;71982;52.294;6.760;2023-11-21T14:29:07;8.90;99.90
36816;DHT22;71982;52.294;6.760;2023-11-21T14:31:36;8.80;99.90
36816;DHT22;71982;52.294;6.760;2023-11-21T14:34:03;8.70;99.90
36816;DHT22;71982;52.294;6.760;2023-11-21T14:36:32;8.70;99.90
36816;DHT22;71982;52.294;6.760;2023-11-21T14:38:58;8.70;99.90
36816;DHT22;71982;52.294;6.760;2023-11-21T14:41:25;8.70;99.90
36816;DHT22;71982;52.294;6.760;2023-11-21T14:43:54;8.60;99.90
36816;DHT22;71982;52.294;6.760;2023-11-21T14:46:22;8.60;99.90
36816;DHT22;71982;52.294;6.760;2023-11-21T14:48:49;8.50;99.90
36816;DHT22;71982;52.294;6.760;2023-11-21T14:51:24;8.50;99.90
36816;DHT22;71982;52.294;6.760;2023-11-21T14:53:56;8.50;99.90
36816;DHT22;71982;52.294;6.760;2023-11-21T14:56:26;8.60;99.90
36816;DHT22;71982;52.294;6.760;2023-11-21T14:58:57;8.60;99.90
36816;DHT22;71982;52.294;6.760;2023-11-21T15:01:26;8.60;99.90
36816;DHT22;71982;52.294;6.760;2023-11-21T15:04:10;8.60;99.90
36816;DHT22;71982;52.294;6.760;2023-11-21T15:06:46;8.50;99.90
36816;DHT22;71982;52.294;6.760;2023-11-21T15:09:13;8.50;99.90
36816;DHT22;71982;52.294;6.760;2023-11-21T15:12:01;8.50;99.90
36816;DHT22;71982;52.294;6.760;2023-11-21T15:14:36;8.50;99.90
36816;DHT22;71982;52.294;6.760;2023-11-21T15:17:03;8.40;99.90
36816;DHT22;71982;52.294;6.760;2023-11-21T15:19:30;8.40;99.90
36816;DHT22;71982;52.294;6.760;2023-11-21T15:21:57;8.40;99.90
36816;DHT22;71982;52.294;6.760;2023-11-21T15:24:24;8.40;99.90
36816;DHT22;71982;52.294;6.760;2023-11-21T15:26:51;8.30;99.90
36816;DHT22;71982;52.294;6.760;2023-11-21T15:29:18;8.20;99.90
36816;DHT22;71982;52.294;6.760;2023-11-21T15:31:48;8.20;99.90
36816;DHT22;71982;52.294;6.760;2023-11-21T15:34:15;8.10;99.90
36816;DHT22;71982;52.294;6.760;2023-11-21T15:36:41;8.10;99.90
36816;DHT22;71982;52.294;6.760;2023-11-21T15:39:09;8.10;99.90
36816;DHT22;71982;52.294;6.760;2023-11-21T15:41:37;8.00;99.90
36816;DHT22;71982;52.294;6.760;2023-11-21T15:44:05;8.00;99.90
36816;DHT22;71982;52.294;6.760;2023-11-21T15:46:35;8.00;99.90
36816;DHT22;71982;52.294;6.760;2023-11-21T15:49:04;8.00;99.90
36816;DHT22;71982;52.294;6.760;2023-11-21T15:51:38;8.00;99.90
36816;DHT22;71982;52.294;6.760;2023-11-21T15:54:05;7.90;99.90